sensor_id;sensor_type;location;lat;lon;timestamp;temperature;humidity
48575;DHT22;34352;51.084;3.712;2023-05-07T00:02:23;17.90;99.90
48575;DHT22;34352;51.084;3.712;2023-05-07T00:04:48;17.90;99.90
48575;DHT22;34352;51.084;3.712;2023-05-07T00:07:15;17.90;99.90
48575;DHT22;34352;51.084;3.712;2023-05-07T00:09:40;17.80;99.90
48575;DHT22;34352;51.084;3.712;2023-05-07T00:12:07;17.80;99.90
48575;DHT22;34352;51.084;3.712;2023-05-07T00:14:33;17.80;99.90
48575;DHT22;34352;51.084;3.712;2023-05-07T00:17:00;17.80;99.90
48575;DHT22;34352;51.084;3.712;2023-05-07T00:19:26;17.70;99.90
48575;DHT22;34352;51.084;3.712;2023-05-07T00:21:52;17.80;99.90
48575;DHT22;34352;51.084;3.712;2023-05-07T00:24:19;17.80;99.90
48575;DHT22;34352;51.084;3.712;2023-05-07T00:26:45;17.90;99.90
48575;DHT22;34352;51.084;3.712;2023-05-07T00:29:11;17.80;99.90
48575;DHT22;34352;51.084;3.712;2023-05-07T00:31:36;17.80;99.90
48575;DHT22;34352;51.084;3.712;2023-05-07T00:34:02;17.80;99.90
48575;DHT22;34352;51.084;3.712;2023-05-07T00:36:28;17.70;99.90
48575;DHT22;34352;51.084;3.712;2023-05-07T00:38:56;17.80;99.90
48575;DHT22;34352;51.084;3.712;2023-05-07T00:41:21;17.70;99.90
48575;DHT22;34352;51.084;3.712;2023-05-07T00:43:48;17.60;99.90
48575;DHT22;34352;51.084;3.712;2023-05-07T00:46:14;17.60;99.90
48575;DHT22;34352;51.084;3.712;2023-05-07T00:48:41;17.60;99.90
48575;DHT22;34352;51.084;3.712;2023-05-07T00:51:06;17.60;99.90
48575;DHT22;34352;51.084;3.712;2023-05-07T00:53:32;17.70;99.90
48575;DHT22;34352;51.084;3.712;2023-05-07T00:55:59;17.70;99.90
48575;DHT22;34352;51.084;3.712;2023-05-07T00:58:26;17.70;99.90
48575;DHT22;34352;51.084;3.712;2023-05-07T01:00:52;17.60;99.90
48575;DHT22;34352;51.084;3.712;2023-05-07T01:03:17;17.60;99.90
48575;DHT22;34352;51.084;3.712;2023-05-07T01:05:44;17.60;99.90
48575;DHT22;34352;51.084;3.712;2023-05-07T01:08:11;17.60;99.90
48575;DHT22;34352;51.084;3.712;2023-05-07T01:10:37;17.70;99.90
48575;DHT22;34352;51.084;3.712;2023-05-07T01:13:10;17.60;99.90
48575;DHT22;34352;51.084;3.712;2023-05-07T01:15:36;17.60;99.90
48575;DHT22;34352;51.084;3.712;2023-05-07T01:18:03;17.60;99.90
48575;DHT22;34352;51.084;3.712;2023-05-07T01:20:29;17.50;99.90
48575;DHT22;34352;51.084;3.712;2023-05-07T01:22:56;17.40;99.90
48575;DHT22;34352;51.084;3.712;2023-05-07T01:25:23;17.50;99.90
48575;DHT22;34352;51.084;3.712;2023-05-07T01:27:50;17.50;99.90
48575;DHT22;34352;51.084;3.712;2023-05-07T01:30:18;17.60;99.90
48575;DHT22;34352;51.084;3.712;2023-05-07T01:32:58;17.50;99.90
48575;DHT22;34352;51.084;3.712;2023-05-07T01:35:29;17.40;99.90
48575;DHT22;34352;51.084;3.712;2023-05-07T01:37:56;17.30;99.90
48575;DHT22;34352;51.084;3.712;2023-05-07T01:40:23;17.30;99.90
48575;DHT22;34352;51.084;3.712;2023-05-07T01:42:50;17.30;99.90
48575;DHT22;34352;51.084;3.712;2023-05-07T01:45:16;17.30;99.90
48575;DHT22;34352;51.084;3.712;2023-05-07T01:47:42;17.20;99.90
48575;DHT22;34352;51.084;3.712;2023-05-07T01:50:09;17.20;99.90
48575;DHT22;34352;51.084;3.712;2023-05-07T01:52:38;17.20;1.00
48575;DHT22;34352;51.084;3.712;2023-05-07T01:55:04;17.10;1.00
48575;DHT22;34352;51.084;3.712;2023-05-07T01:57:30;17.10;1.00
48575;DHT22;34352;51.084;3.712;2023-05-07T01:59:56;17.00;1.00
48575;DHT22;34352;51.084;3.712;2023-05-07T02:02:24;16.90;1.00
48575;DHT22;34352;51.084;3.712;2023-05-07T02:04:49;17.00;1.00
48575;DHT22;34352;51.084;3.712;2023-05-07T02:07:15;16.90;1.00
48575;DHT22;34352;51.084;3.712;2023-05-07T02:09:41;16.90;1.00
48575;DHT22;34352;51.084;3.712;2023-05-07T02:12:07;16.90;1.00
48575;DHT22;34352;51.084;3.712;2023-05-07T02:14:32;16.80;1.00
48575;DHT22;34352;51.084;3.712;2023-05-07T02:16:58;16.80;1.00
48575;DHT22;34352;51.084;3.712;2023-05-07T02:19:24;16.70;1.00
48575;DHT22;34352;51.084;3.712;2023-05-07T02:21:51;16.70;1.00
48575;DHT22;34352;51.084;3.712;2023-05-07T02:24:16;16.60;1.00
48575;DHT22;34352;51.084;3.712;2023-05-07T02:26:42;16.60;1.00
48575;DHT22;34352;51.084;3.712;2023-05-07T02:29:08;16.60;1.00
48575;DHT22;34352;51.084;3.712;2023-05-07T02:31:35;16.50;1.00
48575;DHT22;34352;51.084;3.712;2023-05-07T02:34:01;16.60;1.00
48575;DHT22;34352;51.084;3.712;2023-05-07T02:36:26;16.60;1.00
48575;DHT22;34352;51.084;3.712;2023-05-07T02:38:52;16.60;1.00
48575;DHT22;34352;51.084;3.712;2023-05-07T02:41:18;16.60;1.00
48575;DHT22;34352;51.084;3.712;2023-05-07T02:43:43;16.60;1.00
48575;DHT22;34352;51.084;3.712;2023-05-07T02:46:09;16.50;1.00
48575;DHT22;34352;51.084;3.712;2023-05-07T02:48:35;16.40;1.00
48575;DHT22;34352;51.084;3.712;2023-05-07T02:51:03;16.40;1.00
48575;DHT22;34352;51.084;3.712;2023-05-07T02:53:29;16.50;1.00
48575;DHT22;34352;51.084;3.712;2023-05-07T02:55:59;16.50;1.00
48575;DHT22;34352;51.084;3.712;2023-05-07T02:58:25;16.60;1.00
48575;DHT22;34352;51.084;3.712;2023-05-07T03:00:51;16.60;1.00
48575;DHT22;34352;51.084;3.712;2023-05-07T03:03:17;16.70;1.00
48575;DHT22;34352;51.084;3.712;2023-05-07T03:05:42;16.60;1.00
48575;DHT22;34352;51.084;3.712;2023-05-07T03:08:09;16.60;1.00
48575;DHT22;34352;51.084;3.712;2023-05-07T03:10:36;16.60;1.00
48575;DHT22;34352;51.084;3.712;2023-05-07T03:13:02;16.60;1.00
48575;DHT22;34352;51.084;3.712;2023-05-07T03:15:29;16.50;1.00
48575;DHT22;34352;51.084;3.712;2023-05-07T03:17:55;16.40;1.00
48575;DHT22;34352;51.084;3.712;2023-05-07T03:20:21;16.40;1.00
48575;DHT22;34352;51.084;3.712;2023-05-07T03:22:47;16.30;1.00
48575;DHT22;34352;51.084;3.712;2023-05-07T03:25:12;16.30;1.00
48575;DHT22;34352;51.084;3.712;2023-05-07T03:27:39;16.30;1.00
48575;DHT22;34352;51.084;3.712;2023-05-07T03:30:05;16.40;1.00
48575;DHT22;34352;51.084;3.712;2023-05-07T03:32:32;16.40;1.00
48575;DHT22;34352;51.084;3.712;2023-05-07T03:34:58;16.40;1.00
48575;DHT22;34352;51.084;3.712;2023-05-07T03:37:23;16.40;1.00
48575;DHT22;34352;51.084;3.712;2023-05-07T03:39:54;16.50;1.00
48575;DHT22;34352;51.084;3.712;2023-05-07T03:45:42;16.40;1.00
48575;DHT22;34352;51.084;3.712;2023-05-07T03:51:49;16.40;1.00
48575;DHT22;34352;51.084;3.712;2023-05-07T03:54:15;16.30;1.00
48575;DHT22;34352;51.084;3.712;2023-05-07T03:56:41;16.20;1.00
48575;DHT22;34352;51.084;3.712;2023-05-07T03:59:07;16.10;1.00
48575;DHT22;34352;51.084;3.712;2023-05-07T04:01:33;16.30;1.00
48575;DHT22;34352;51.084;3.712;2023-05-07T04:03:59;16.30;1.00
48575;DHT22;34352;51.084;3.712;2023-05-07T04:06:25;16.40;1.00
48575;DHT22;34352;51.084;3.712;2023-05-07T04:08:51;16.50;1.00
48575;DHT22;34352;51.084;3.712;2023-05-07T04:11:16;16.50;1.00
48575;DHT22;34352;51.084;3.712;2023-05-07T04:13:42;16.50;1.00
48575;DHT22;34352;51.084;3.712;2023-05-07T04:16:08;16.50;1.00
48575;DHT22;34352;51.084;3.712;2023-05-07T04:18:33;16.50;1.00
48575;DHT22;34352;51.084;3.712;2023-05-07T04:20:59;16.50;1.00
48575;DHT22;34352;51.084;3.712;2023-05-07T04:23:25;16.60;1.00
48575;DHT22;34352;51.084;3.712;2023-05-07T04:25:51;16.50;1.00
48575;DHT22;34352;51.084;3.712;2023-05-07T04:28:18;16.60;1.00
48575;DHT22;34352;51.084;3.712;2023-05-07T04:30:43;16.50;1.00
48575;DHT22;34352;51.084;3.712;2023-05-07T04:33:09;16.60;1.00
48575;DHT22;34352;51.084;3.712;2023-05-07T04:35:39;16.60;1.00
48575;DHT22;34352;51.084;3.712;2023-05-07T04:38:04;16.70;1.00
48575;DHT22;34352;51.084;3.712;2023-05-07T04:40:30;16.70;1.00
48575;DHT22;34352;51.084;3.712;2023-05-07T04:42:55;16.70;1.00
48575;DHT22;34352;51.084;3.712;2023-05-07T04:45:21;16.60;1.00
48575;DHT22;34352;51.084;3.712;2023-05-07T04:47:47;16.60;1.00
48575;DHT22;34352;51.084;3.712;2023-05-07T04:50:13;16.60;1.00
48575;DHT22;34352;51.084;3.712;2023-05-07T04:52:39;16.60;1.00
48575;DHT22;34352;51.084;3.712;2023-05-07T04:55:05;16.50;1.00
48575;DHT22;34352;51.084;3.712;2023-05-07T04:57:31;16.60;1.00
48575;DHT22;34352;51.084;3.712;2023-05-07T04:59:57;16.50;1.00
48575;DHT22;34352;51.084;3.712;2023-05-07T05:02:23;16.70;1.00
48575;DHT22;34352;51.084;3.712;2023-05-07T05:04:48;16.80;1.00
48575;DHT22;34352;51.084;3.712;2023-05-07T05:07:15;16.90;1.00
48575;DHT22;34352;51.084;3.712;2023-05-07T05:09:42;16.80;1.00
48575;DHT22;34352;51.084;3.712;2023-05-07T05:12:07;16.80;1.00
48575;DHT22;34352;51.084;3.712;2023-05-07T05:14:33;16.90;1.00
48575;DHT22;34352;51.084;3.712;2023-05-07T05:16:59;16.60;1.00
48575;DHT22;34352;51.084;3.712;2023-05-07T05:19:26;16.60;1.00
48575;DHT22;34352;51.084;3.712;2023-05-07T05:21:52;16.40;1.00
48575;DHT22;34352;51.084;3.712;2023-05-07T05:24:18;16.30;1.00
48575;DHT22;34352;51.084;3.712;2023-05-07T05:26:45;16.50;1.00
48575;DHT22;34352;51.084;3.712;2023-05-07T05:29:11;16.60;1.00
48575;DHT22;34352;51.084;3.712;2023-05-07T05:31:36;16.60;1.00
48575;DHT22;34352;51.084;3.712;2023-05-07T05:34:02;16.60;1.00
48575;DHT22;34352;51.084;3.712;2023-05-07T05:36:28;16.60;1.00
48575;DHT22;34352;51.084;3.712;2023-05-07T05:38:55;16.60;1.00
48575;DHT22;34352;51.084;3.712;2023-05-07T05:41:21;16.70;1.00
48575;DHT22;34352;51.084;3.712;2023-05-07T05:43:47;16.80;1.00
48575;DHT22;34352;51.084;3.712;2023-05-07T05:46:12;16.80;1.00
48575;DHT22;34352;51.084;3.712;2023-05-07T05:48:40;16.70;1.00
48575;DHT22;34352;51.084;3.712;2023-05-07T05:51:05;16.50;1.00
48575;DHT22;34352;51.084;3.712;2023-05-07T05:53:31;16.50;1.00
48575;DHT22;34352;51.084;3.712;2023-05-07T05:55:57;16.50;1.00
48575;DHT22;34352;51.084;3.712;2023-05-07T05:58:22;16.60;1.00
48575;DHT22;34352;51.084;3.712;2023-05-07T06:00:48;16.60;1.00
48575;DHT22;34352;51.084;3.712;2023-05-07T06:03:16;16.50;1.00
48575;DHT22;34352;51.084;3.712;2023-05-07T06:05:43;16.50;1.00
48575;DHT22;34352;51.084;3.712;2023-05-07T06:08:09;16.50;1.00
48575;DHT22;34352;51.084;3.712;2023-05-07T06:10:37;16.50;4.20
48575;DHT22;34352;51.084;3.712;2023-05-07T06:13:04;16.50;2.80
48575;DHT22;34352;51.084;3.712;2023-05-07T06:15:31;16.40;9.70
48575;DHT22;34352;51.084;3.712;2023-05-07T06:17:59;16.20;21.10
48575;DHT22;34352;51.084;3.712;2023-05-07T06:20:28;16.20;26.50
48575;DHT22;34352;51.084;3.712;2023-05-07T06:22:54;16.10;27.80
48575;DHT22;34352;51.084;3.712;2023-05-07T06:25:20;16.00;39.30
48575;DHT22;34352;51.084;3.712;2023-05-07T06:27:45;16.00;43.50
48575;DHT22;34352;51.084;3.712;2023-05-07T06:30:12;16.10;46.70
48575;DHT22;34352;51.084;3.712;2023-05-07T06:32:44;16.10;51.10
48575;DHT22;34352;51.084;3.712;2023-05-07T06:35:09;16.20;50.60
48575;DHT22;34352;51.084;3.712;2023-05-07T06:37:38;16.00;56.30
48575;DHT22;34352;51.084;3.712;2023-05-07T06:40:06;16.00;61.50
48575;DHT22;34352;51.084;3.712;2023-05-07T06:42:33;16.00;64.20
48575;DHT22;34352;51.084;3.712;2023-05-07T06:45:00;16.10;65.00
48575;DHT22;34352;51.084;3.712;2023-05-07T06:47:30;16.10;66.90
48575;DHT22;34352;51.084;3.712;2023-05-07T06:49:57;16.10;67.50
48575;DHT22;34352;51.084;3.712;2023-05-07T06:52:23;16.10;68.60
48575;DHT22;34352;51.084;3.712;2023-05-07T06:54:49;16.10;71.40
48575;DHT22;34352;51.084;3.712;2023-05-07T06:57:15;16.00;73.50
48575;DHT22;34352;51.084;3.712;2023-05-07T06:59:40;16.10;74.40
48575;DHT22;34352;51.084;3.712;2023-05-07T07:02:07;16.10;73.80
48575;DHT22;34352;51.084;3.712;2023-05-07T07:04:34;16.10;74.00
48575;DHT22;34352;51.084;3.712;2023-05-07T07:06:59;16.10;74.90
48575;DHT22;34352;51.084;3.712;2023-05-07T07:09:25;16.20;76.20
48575;DHT22;34352;51.084;3.712;2023-05-07T07:11:51;16.20;75.20
48575;DHT22;34352;51.084;3.712;2023-05-07T07:14:17;16.20;74.80
48575;DHT22;34352;51.084;3.712;2023-05-07T07:16:59;16.40;73.70
48575;DHT22;34352;51.084;3.712;2023-05-07T07:19:27;16.40;72.50
48575;DHT22;34352;51.084;3.712;2023-05-07T07:21:58;16.40;73.00
48575;DHT22;34352;51.084;3.712;2023-05-07T07:24:28;16.40;72.40
48575;DHT22;34352;51.084;3.712;2023-05-07T07:26:53;16.50;71.70
48575;DHT22;34352;51.084;3.712;2023-05-07T07:29:20;16.50;72.90
48575;DHT22;34352;51.084;3.712;2023-05-07T07:31:51;16.40;73.10
48575;DHT22;34352;51.084;3.712;2023-05-07T07:34:19;16.40;72.60
48575;DHT22;34352;51.084;3.712;2023-05-07T07:36:45;16.40;73.30
48575;DHT22;34352;51.084;3.712;2023-05-07T07:39:11;16.40;75.40
48575;DHT22;34352;51.084;3.712;2023-05-07T07:41:37;16.40;76.70
48575;DHT22;34352;51.084;3.712;2023-05-07T07:44:06;16.40;78.10
48575;DHT22;34352;51.084;3.712;2023-05-07T07:46:38;16.50;75.30
48575;DHT22;34352;51.084;3.712;2023-05-07T07:49:06;16.50;74.90
48575;DHT22;34352;51.084;3.712;2023-05-07T07:51:32;16.60;73.70
48575;DHT22;34352;51.084;3.712;2023-05-07T07:53:59;16.40;73.00
48575;DHT22;34352;51.084;3.712;2023-05-07T07:56:25;16.30;77.10
48575;DHT22;34352;51.084;3.712;2023-05-07T07:58:52;16.20;78.40
48575;DHT22;34352;51.084;3.712;2023-05-07T08:01:18;16.20;80.60
48575;DHT22;34352;51.084;3.712;2023-05-07T08:03:45;16.20;79.90
48575;DHT22;34352;51.084;3.712;2023-05-07T08:06:11;16.20;80.80
48575;DHT22;34352;51.084;3.712;2023-05-07T08:08:36;16.30;81.70
48575;DHT22;34352;51.084;3.712;2023-05-07T08:11:02;16.60;80.30
48575;DHT22;34352;51.084;3.712;2023-05-07T08:13:28;16.60;78.10
48575;DHT22;34352;51.084;3.712;2023-05-07T08:16:02;16.70;75.70
48575;DHT22;34352;51.084;3.712;2023-05-07T08:18:34;16.90;72.50
48575;DHT22;34352;51.084;3.712;2023-05-07T08:21:02;16.90;72.10
48575;DHT22;34352;51.084;3.712;2023-05-07T08:23:28;16.80;69.20
48575;DHT22;34352;51.084;3.712;2023-05-07T08:25:54;16.80;70.60
48575;DHT22;34352;51.084;3.712;2023-05-07T08:28:20;16.70;71.10
48575;DHT22;34352;51.084;3.712;2023-05-07T08:30:47;16.50;72.70
48575;DHT22;34352;51.084;3.712;2023-05-07T08:33:14;16.40;74.50
48575;DHT22;34352;51.084;3.712;2023-05-07T08:35:40;16.40;76.30
48575;DHT22;34352;51.084;3.712;2023-05-07T08:38:06;16.40;77.30
48575;DHT22;34352;51.084;3.712;2023-05-07T08:40:37;16.50;79.70
48575;DHT22;34352;51.084;3.712;2023-05-07T08:43:07;16.70;78.30
48575;DHT22;34352;51.084;3.712;2023-05-07T08:45:34;16.90;74.30
48575;DHT22;34352;51.084;3.712;2023-05-07T08:48:09;17.00;70.20
48575;DHT22;34352;51.084;3.712;2023-05-07T08:50:36;17.10;69.40
48575;DHT22;34352;51.084;3.712;2023-05-07T08:53:05;17.10;67.30
48575;DHT22;34352;51.084;3.712;2023-05-07T08:55:31;17.10;67.90
48575;DHT22;34352;51.084;3.712;2023-05-07T08:58:08;17.20;66.70
48575;DHT22;34352;51.084;3.712;2023-05-07T09:00:36;17.20;68.30
48575;DHT22;34352;51.084;3.712;2023-05-07T09:03:03;17.10;66.90
48575;DHT22;34352;51.084;3.712;2023-05-07T09:05:29;17.30;67.00
48575;DHT22;34352;51.084;3.712;2023-05-07T09:08:02;17.40;66.80
48575;DHT22;34352;51.084;3.712;2023-05-07T09:10:29;17.50;63.50
48575;DHT22;34352;51.084;3.712;2023-05-07T09:12:55;17.60;63.20
48575;DHT22;34352;51.084;3.712;2023-05-07T09:15:55;17.60;62.00
48575;DHT22;34352;51.084;3.712;2023-05-07T09:18:26;17.70;61.50
48575;DHT22;34352;51.084;3.712;2023-05-07T09:20:52;17.70;61.90
48575;DHT22;34352;51.084;3.712;2023-05-07T09:23:26;17.80;57.70
48575;DHT22;34352;51.084;3.712;2023-05-07T09:26:00;18.00;52.90
48575;DHT22;34352;51.084;3.712;2023-05-07T09:28:28;18.00;48.70
48575;DHT22;34352;51.084;3.712;2023-05-07T09:30:55;17.90;53.20
48575;DHT22;34352;51.084;3.712;2023-05-07T09:33:21;17.80;54.30
48575;DHT22;34352;51.084;3.712;2023-05-07T09:35:51;17.90;49.50
48575;DHT22;34352;51.084;3.712;2023-05-07T09:38:19;17.70;50.60
48575;DHT22;34352;51.084;3.712;2023-05-07T09:40:45;17.80;52.40
48575;DHT22;34352;51.084;3.712;2023-05-07T09:43:13;17.80;53.00
48575;DHT22;34352;51.084;3.712;2023-05-07T09:45:41;17.90;51.40
48575;DHT22;34352;51.084;3.712;2023-05-07T09:48:06;17.80;51.30
48575;DHT22;34352;51.084;3.712;2023-05-07T09:50:49;17.90;51.20
48575;DHT22;34352;51.084;3.712;2023-05-07T09:53:19;18.10;43.30
48575;DHT22;34352;51.084;3.712;2023-05-07T09:55:47;18.20;37.40
48575;DHT22;34352;51.084;3.712;2023-05-07T09:58:37;18.20;34.00
48575;DHT22;34352;51.084;3.712;2023-05-07T10:01:11;18.50;31.50
48575;DHT22;34352;51.084;3.712;2023-05-07T10:03:43;18.50;27.70
48575;DHT22;34352;51.084;3.712;2023-05-07T10:06:12;18.50;27.40
48575;DHT22;34352;51.084;3.712;2023-05-07T10:08:40;18.60;29.20
48575;DHT22;34352;51.084;3.712;2023-05-07T10:11:06;18.60;35.60
48575;DHT22;34352;51.084;3.712;2023-05-07T10:13:33;18.70;30.50
48575;DHT22;34352;51.084;3.712;2023-05-07T10:16:10;18.70;24.60
48575;DHT22;34352;51.084;3.712;2023-05-07T10:18:37;18.80;18.70
48575;DHT22;34352;51.084;3.712;2023-05-07T10:21:21;19.00;16.70
48575;DHT22;34352;51.084;3.712;2023-05-07T10:23:58;19.10;14.60
48575;DHT22;34352;51.084;3.712;2023-05-07T10:26:28;19.20;9.20
48575;DHT22;34352;51.084;3.712;2023-05-07T10:28:59;19.50;3.30
48575;DHT22;34352;51.084;3.712;2023-05-07T10:34:23;19.80;1.00
48575;DHT22;34352;51.084;3.712;2023-05-07T10:36:50;19.90;1.00
48575;DHT22;34352;51.084;3.712;2023-05-07T10:39:25;20.20;1.00
48575;DHT22;34352;51.084;3.712;2023-05-07T10:41:52;20.50;1.00
48575;DHT22;34352;51.084;3.712;2023-05-07T10:44:28;20.50;1.00
48575;DHT22;34352;51.084;3.712;2023-05-07T10:47:09;20.30;1.00
48575;DHT22;34352;51.084;3.712;2023-05-07T10:52:36;20.20;1.00
48575;DHT22;34352;51.084;3.712;2023-05-07T10:55:32;20.40;1.00
48575;DHT22;34352;51.084;3.712;2023-05-07T11:00:47;20.50;1.00
48575;DHT22;34352;51.084;3.712;2023-05-07T11:03:13;20.70;1.00
48575;DHT22;34352;51.084;3.712;2023-05-07T11:05:41;20.40;1.00
48575;DHT22;34352;51.084;3.712;2023-05-07T11:08:09;20.40;1.00
48575;DHT22;34352;51.084;3.712;2023-05-07T11:10:54;20.70;1.00
48575;DHT22;34352;51.084;3.712;2023-05-07T11:13:49;20.60;1.00
48575;DHT22;34352;51.084;3.712;2023-05-07T11:16:24;20.40;1.00
48575;DHT22;34352;51.084;3.712;2023-05-07T11:18:55;20.30;1.00
48575;DHT22;34352;51.084;3.712;2023-05-07T11:21:38;20.30;1.00
48575;DHT22;34352;51.084;3.712;2023-05-07T11:24:06;20.50;1.00
48575;DHT22;34352;51.084;3.712;2023-05-07T11:29:24;20.00;1.00
48575;DHT22;34352;51.084;3.712;2023-05-07T11:31:55;20.00;1.00
48575;DHT22;34352;51.084;3.712;2023-05-07T11:34:24;20.00;1.00
48575;DHT22;34352;51.084;3.712;2023-05-07T11:36:51;19.90;1.00
48575;DHT22;34352;51.084;3.712;2023-05-07T11:39:30;20.00;1.00
48575;DHT22;34352;51.084;3.712;2023-05-07T11:42:31;20.10;1.00
48575;DHT22;34352;51.084;3.712;2023-05-07T11:45:01;20.10;1.00
48575;DHT22;34352;51.084;3.712;2023-05-07T11:47:34;20.20;1.00
48575;DHT22;34352;51.084;3.712;2023-05-07T11:50:05;20.40;1.00
48575;DHT22;34352;51.084;3.712;2023-05-07T11:52:35;20.50;1.00
48575;DHT22;34352;51.084;3.712;2023-05-07T11:55:02;20.40;1.00
48575;DHT22;34352;51.084;3.712;2023-05-07T11:57:29;20.70;1.00
48575;DHT22;34352;51.084;3.712;2023-05-07T11:59:58;20.80;1.00
48575;DHT22;34352;51.084;3.712;2023-05-07T12:02:25;21.00;1.00
48575;DHT22;34352;51.084;3.712;2023-05-07T12:04:54;21.30;99.90
48575;DHT22;34352;51.084;3.712;2023-05-07T12:07:20;21.60;99.90
48575;DHT22;34352;51.084;3.712;2023-05-07T12:09:46;21.70;99.90
48575;DHT22;34352;51.084;3.712;2023-05-07T12:12:13;21.60;99.90
48575;DHT22;34352;51.084;3.712;2023-05-07T12:14:45;21.50;99.90
48575;DHT22;34352;51.084;3.712;2023-05-07T12:17:13;21.60;99.90
48575;DHT22;34352;51.084;3.712;2023-05-07T12:19:41;22.00;99.90
48575;DHT22;34352;51.084;3.712;2023-05-07T12:22:08;22.20;99.90
48575;DHT22;34352;51.084;3.712;2023-05-07T12:27:11;22.40;99.90
48575;DHT22;34352;51.084;3.712;2023-05-07T12:29:37;22.50;99.90
48575;DHT22;34352;51.084;3.712;2023-05-07T12:32:06;23.10;99.90
48575;DHT22;34352;51.084;3.712;2023-05-07T12:34:33;23.20;99.90
48575;DHT22;34352;51.084;3.712;2023-05-07T12:37:02;23.20;99.90
48575;DHT22;34352;51.084;3.712;2023-05-07T12:39:29;23.20;99.90
48575;DHT22;34352;51.084;3.712;2023-05-07T12:41:56;23.30;99.90
48575;DHT22;34352;51.084;3.712;2023-05-07T12:44:31;23.30;99.90
48575;DHT22;34352;51.084;3.712;2023-05-07T12:46:58;23.30;99.90
48575;DHT22;34352;51.084;3.712;2023-05-07T12:49:26;23.60;99.90
48575;DHT22;34352;51.084;3.712;2023-05-07T12:51:53;24.00;99.90
48575;DHT22;34352;51.084;3.712;2023-05-07T12:54:33;24.30;99.90
48575;DHT22;34352;51.084;3.712;2023-05-07T12:57:06;24.60;99.90
48575;DHT22;34352;51.084;3.712;2023-05-07T12:59:41;24.50;99.90
48575;DHT22;34352;51.084;3.712;2023-05-07T13:02:07;24.70;99.90
48575;DHT22;34352;51.084;3.712;2023-05-07T13:04:33;24.70;99.90
48575;DHT22;34352;51.084;3.712;2023-05-07T13:07:00;24.90;99.90
48575;DHT22;34352;51.084;3.712;2023-05-07T13:09:26;25.00;99.90
48575;DHT22;34352;51.084;3.712;2023-05-07T13:11:52;25.40;99.90
48575;DHT22;34352;51.084;3.712;2023-05-07T13:14:17;25.30;99.90
48575;DHT22;34352;51.084;3.712;2023-05-07T13:16:45;25.20;99.90
48575;DHT22;34352;51.084;3.712;2023-05-07T13:19:13;25.00;99.90
48575;DHT22;34352;51.084;3.712;2023-05-07T13:21:39;24.70;99.90
48575;DHT22;34352;51.084;3.712;2023-05-07T13:24:05;24.50;99.90
48575;DHT22;34352;51.084;3.712;2023-05-07T13:26:32;24.60;99.90
48575;DHT22;34352;51.084;3.712;2023-05-07T13:28:58;24.50;99.90
48575;DHT22;34352;51.084;3.712;2023-05-07T13:31:24;24.70;99.90
48575;DHT22;34352;51.084;3.712;2023-05-07T13:33:50;24.50;99.90
48575;DHT22;34352;51.084;3.712;2023-05-07T13:36:16;24.40;99.90
48575;DHT22;34352;51.084;3.712;2023-05-07T13:38:41;24.20;99.90
48575;DHT22;34352;51.084;3.712;2023-05-07T13:41:07;24.30;99.90
48575;DHT22;34352;51.084;3.712;2023-05-07T13:43:34;24.40;99.90
48575;DHT22;34352;51.084;3.712;2023-05-07T13:46:00;24.60;99.90
48575;DHT22;34352;51.084;3.712;2023-05-07T13:48:26;24.50;99.90
48575;DHT22;34352;51.084;3.712;2023-05-07T13:50:53;24.50;99.90
48575;DHT22;34352;51.084;3.712;2023-05-07T13:53:19;24.40;99.90
48575;DHT22;34352;51.084;3.712;2023-05-07T13:55:45;24.00;99.90
48575;DHT22;34352;51.084;3.712;2023-05-07T13:58:11;23.60;99.90
48575;DHT22;34352;51.084;3.712;2023-05-07T14:00:37;23.40;99.90
48575;DHT22;34352;51.084;3.712;2023-05-07T14:03:04;23.10;99.90
48575;DHT22;34352;51.084;3.712;2023-05-07T14:05:31;23.00;99.90
48575;DHT22;34352;51.084;3.712;2023-05-07T14:07:57;22.80;99.90
48575;DHT22;34352;51.084;3.712;2023-05-07T14:10:23;22.60;99.90
48575;DHT22;34352;51.084;3.712;2023-05-07T14:12:49;22.40;99.90
48575;DHT22;34352;51.084;3.712;2023-05-07T14:15:15;22.30;99.90
48575;DHT22;34352;51.084;3.712;2023-05-07T14:17:42;21.90;99.90
48575;DHT22;34352;51.084;3.712;2023-05-07T14:20:08;21.60;99.90
48575;DHT22;34352;51.084;3.712;2023-05-07T14:22:35;21.40;99.90
48575;DHT22;34352;51.084;3.712;2023-05-07T14:25:02;21.30;99.90
48575;DHT22;34352;51.084;3.712;2023-05-07T14:27:27;21.20;99.90
48575;DHT22;34352;51.084;3.712;2023-05-07T14:29:53;21.10;99.90
48575;DHT22;34352;51.084;3.712;2023-05-07T14:32:19;21.00;99.90
48575;DHT22;34352;51.084;3.712;2023-05-07T14:34:48;20.90;99.90
48575;DHT22;34352;51.084;3.712;2023-05-07T14:37:14;20.60;99.90
48575;DHT22;34352;51.084;3.712;2023-05-07T14:39:40;20.70;99.90
48575;DHT22;34352;51.084;3.712;2023-05-07T14:42:06;20.60;99.90
48575;DHT22;34352;51.084;3.712;2023-05-07T14:44:34;20.50;1.00
48575;DHT22;34352;51.084;3.712;2023-05-07T14:47:00;20.50;1.00
48575;DHT22;34352;51.084;3.712;2023-05-07T14:49:26;20.60;1.00
48575;DHT22;34352;51.084;3.712;2023-05-07T14:51:51;20.50;1.00
48575;DHT22;34352;51.084;3.712;2023-05-07T14:54:17;20.50;1.00
48575;DHT22;34352;51.084;3.712;2023-05-07T14:56:43;20.70;1.00
48575;DHT22;34352;51.084;3.712;2023-05-07T14:59:10;20.80;1.00
48575;DHT22;34352;51.084;3.712;2023-05-07T15:01:36;20.90;1.00
48575;DHT22;34352;51.084;3.712;2023-05-07T15:04:03;21.00;1.00
48575;DHT22;34352;51.084;3.712;2023-05-07T15:06:29;21.20;1.00
48575;DHT22;34352;51.084;3.712;2023-05-07T15:08:56;21.30;99.90
48575;DHT22;34352;51.084;3.712;2023-05-07T15:11:22;21.40;99.90
48575;DHT22;34352;51.084;3.712;2023-05-07T15:13:48;21.20;99.90
48575;DHT22;34352;51.084;3.712;2023-05-07T15:16:15;20.90;99.90
48575;DHT22;34352;51.084;3.712;2023-05-07T15:18:41;21.00;99.90
48575;DHT22;34352;51.084;3.712;2023-05-07T15:21:06;21.10;99.90
48575;DHT22;34352;51.084;3.712;2023-05-07T15:23:32;21.10;99.90
48575;DHT22;34352;51.084;3.712;2023-05-07T15:25:58;21.30;99.90
48575;DHT22;34352;51.084;3.712;2023-05-07T15:28:24;21.50;99.90
48575;DHT22;34352;51.084;3.712;2023-05-07T15:30:50;21.60;99.90
48575;DHT22;34352;51.084;3.712;2023-05-07T15:33:16;21.70;99.90
48575;DHT22;34352;51.084;3.712;2023-05-07T15:35:42;21.80;99.90
48575;DHT22;34352;51.084;3.712;2023-05-07T15:38:09;21.80;99.90
48575;DHT22;34352;51.084;3.712;2023-05-07T15:40:34;21.80;99.90
48575;DHT22;34352;51.084;3.712;2023-05-07T15:43:03;21.70;99.90
48575;DHT22;34352;51.084;3.712;2023-05-07T15:45:28;21.60;99.90
48575;DHT22;34352;51.084;3.712;2023-05-07T15:47:54;21.60;99.90
48575;DHT22;34352;51.084;3.712;2023-05-07T15:50:22;21.50;99.90
48575;DHT22;34352;51.084;3.712;2023-05-07T15:52:49;21.50;99.90
48575;DHT22;34352;51.084;3.712;2023-05-07T15:55:16;21.50;99.90
48575;DHT22;34352;51.084;3.712;2023-05-07T15:57:42;21.40;99.90
48575;DHT22;34352;51.084;3.712;2023-05-07T16:00:08;21.30;99.90
48575;DHT22;34352;51.084;3.712;2023-05-07T16:02:36;21.10;99.90